sensor_id;sensor_type;location;lat;lon;timestamp;temperature;humidity
17172;DHT22;8701;50.150;8.756;2023-04-25T00:01:13;10.60;99.90
17172;DHT22;8701;50.150;8.756;2023-04-25T00:05:15;10.60;99.90
17172;DHT22;8701;50.150;8.756;2023-04-25T00:09:19;10.60;99.90
17172;DHT22;8701;50.150;8.756;2023-04-25T00:13:21;10.50;99.90
17172;DHT22;8701;50.150;8.756;2023-04-25T00:17:23;10.50;99.90
17172;DHT22;8701;50.150;8.756;2023-04-25T00:21:26;10.50;99.90
17172;DHT22;8701;50.150;8.756;2023-04-25T00:25:30;10.40;99.90
17172;DHT22;8701;50.150;8.756;2023-04-25T00:29:33;10.30;99.90
17172;DHT22;8701;50.150;8.756;2023-04-25T00:33:35;10.30;99.90
17172;DHT22;8701;50.150;8.756;2023-04-25T00:37:37;10.40;99.90
17172;DHT22;8701;50.150;8.756;2023-04-25T00:41:41;10.30;99.90
17172;DHT22;8701;50.150;8.756;2023-04-25T00:45:43;10.30;99.90
17172;DHT22;8701;50.150;8.756;2023-04-25T00:49:48;10.30;99.90
17172;DHT22;8701;50.150;8.756;2023-04-25T00:53:51;10.30;99.90
17172;DHT22;8701;50.150;8.756;2023-04-25T00:57:54;10.20;99.90
17172;DHT22;8701;50.150;8.756;2023-04-25T01:01:56;10.20;99.90
17172;DHT22;8701;50.150;8.756;2023-04-25T01:06:00;10.30;99.90
17172;DHT22;8701;50.150;8.756;2023-04-25T01:10:03;10.30;99.90
17172;DHT22;8701;50.150;8.756;2023-04-25T01:14:07;10.30;99.90
17172;DHT22;8701;50.150;8.756;2023-04-25T01:18:09;10.20;99.90
17172;DHT22;8701;50.150;8.756;2023-04-25T01:22:14;10.30;99.90
17172;DHT22;8701;50.150;8.756;2023-04-25T01:26:16;10.30;99.90
17172;DHT22;8701;50.150;8.756;2023-04-25T01:30:19;10.20;99.90
17172;DHT22;8701;50.150;8.756;2023-04-25T01:34:22;10.20;99.90
17172;DHT22;8701;50.150;8.756;2023-04-25T01:38:25;10.20;99.90
17172;DHT22;8701;50.150;8.756;2023-04-25T01:42:29;10.30;99.90
17172;DHT22;8701;50.150;8.756;2023-04-25T01:46:31;10.30;99.90
17172;DHT22;8701;50.150;8.756;2023-04-25T01:50:34;10.10;99.90
17172;DHT22;8701;50.150;8.756;2023-04-25T01:54:37;10.00;99.90
17172;DHT22;8701;50.150;8.756;2023-04-25T01:58:45;10.10;99.90
17172;DHT22;8701;50.150;8.756;2023-04-25T02:03:06;10.20;99.90
17172;DHT22;8701;50.150;8.756;2023-04-25T02:07:09;10.20;99.90
17172;DHT22;8701;50.150;8.756;2023-04-25T02:11:24;10.20;99.90
17172;DHT22;8701;50.150;8.756;2023-04-25T02:15:38;10.20;99.90
17172;DHT22;8701;50.150;8.756;2023-04-25T02:19:52;10.20;99.90
17172;DHT22;8701;50.150;8.756;2023-04-25T02:23:54;10.20;99.90
17172;DHT22;8701;50.150;8.756;2023-04-25T02:27:58;10.20;99.90
17172;DHT22;8701;50.150;8.756;2023-04-25T02:32:00;10.20;99.90
17172;DHT22;8701;50.150;8.756;2023-04-25T02:36:03;10.10;99.90
17172;DHT22;8701;50.150;8.756;2023-04-25T02:40:06;10.10;99.90
17172;DHT22;8701;50.150;8.756;2023-04-25T02:44:10;10.10;99.90
17172;DHT22;8701;50.150;8.756;2023-04-25T02:48:12;10.10;99.90
17172;DHT22;8701;50.150;8.756;2023-04-25T02:52:15;10.00;99.90
17172;DHT22;8701;50.150;8.756;2023-04-25T02:56:19;10.00;99.90
17172;DHT22;8701;50.150;8.756;2023-04-25T03:00:23;10.00;99.90
17172;DHT22;8701;50.150;8.756;2023-04-25T03:04:25;10.00;99.90
17172;DHT22;8701;50.150;8.756;2023-04-25T03:08:27;10.00;99.90
17172;DHT22;8701;50.150;8.756;2023-04-25T03:12:34;9.90;99.90
17172;DHT22;8701;50.150;8.756;2023-04-25T03:16:38;9.90;99.90
17172;DHT22;8701;50.150;8.756;2023-04-25T03:20:40;9.80;99.90
17172;DHT22;8701;50.150;8.756;2023-04-25T03:24:44;9.80;99.90
17172;DHT22;8701;50.150;8.756;2023-04-25T03:28:46;9.80;99.90
17172;DHT22;8701;50.150;8.756;2023-04-25T03:32:49;9.80;99.90
17172;DHT22;8701;50.150;8.756;2023-04-25T03:36:52;9.80;99.90
17172;DHT22;8701;50.150;8.756;2023-04-25T03:40:54;9.80;99.90
17172;DHT22;8701;50.150;8.756;2023-04-25T03:45:09;9.90;99.90
17172;DHT22;8701;50.150;8.756;2023-04-25T03:49:13;9.90;99.90
17172;DHT22;8701;50.150;8.756;2023-04-25T03:53:31;9.90;99.90
17172;DHT22;8701;50.150;8.756;2023-04-25T03:58:02;9.90;99.90
17172;DHT22;8701;50.150;8.756;2023-04-25T04:02:04;9.80;99.90
17172;DHT22;8701;50.150;8.756;2023-04-25T04:06:10;9.80;99.90
17172;DHT22;8701;50.150;8.756;2023-04-25T04:10:17;9.70;99.90
17172;DHT22;8701;50.150;8.756;2023-04-25T04:14:19;9.70;99.90
17172;DHT22;8701;50.150;8.756;2023-04-25T04:18:23;9.60;99.90
17172;DHT22;8701;50.150;8.756;2023-04-25T04:22:27;9.50;99.90
17172;DHT22;8701;50.150;8.756;2023-04-25T04:26:33;9.50;99.90
17172;DHT22;8701;50.150;8.756;2023-04-25T04:30:45;9.40;99.90
17172;DHT22;8701;50.150;8.756;2023-04-25T04:34:48;9.20;99.90
17172;DHT22;8701;50.150;8.756;2023-04-25T04:38:53;9.30;99.90
17172;DHT22;8701;50.150;8.756;2023-04-25T04:43:08;9.20;99.90
17172;DHT22;8701;50.150;8.756;2023-04-25T04:47:29;9.10;99.90
17172;DHT22;8701;50.150;8.756;2023-04-25T04:51:53;9.10;99.90
17172;DHT22;8701;50.150;8.756;2023-04-25T04:56:13;9.00;99.90
17172;DHT22;8701;50.150;8.756;2023-04-25T05:00:21;9.00;99.90
17172;DHT22;8701;50.150;8.756;2023-04-25T05:04:49;9.10;99.90
17172;DHT22;8701;50.150;8.756;2023-04-25T05:09:04;9.20;99.90
17172;DHT22;8701;50.150;8.756;2023-04-25T05:13:26;9.20;99.90
17172;DHT22;8701;50.150;8.756;2023-04-25T05:17:43;9.30;99.90
17172;DHT22;8701;50.150;8.756;2023-04-25T05:22:04;9.20;99.90
17172;DHT22;8701;50.150;8.756;2023-04-25T05:26:13;9.20;99.90
17172;DHT22;8701;50.150;8.756;2023-04-25T05:30:38;9.20;99.90
17172;DHT22;8701;50.150;8.756;2023-04-25T05:35:02;9.30;99.90
17172;DHT22;8701;50.150;8.756;2023-04-25T05:39:11;9.40;99.90
17172;DHT22;8701;50.150;8.756;2023-04-25T05:43:37;9.40;99.90
17172;DHT22;8701;50.150;8.756;2023-04-25T05:47:57;9.50;99.90
17172;DHT22;8701;50.150;8.756;2023-04-25T05:52:26;9.60;99.90
17172;DHT22;8701;50.150;8.756;2023-04-25T05:56:42;9.60;99.90
17172;DHT22;8701;50.150;8.756;2023-04-25T06:00:45;9.80;99.90
17172;DHT22;8701;50.150;8.756;2023-04-25T06:04:49;9.70;99.90
17172;DHT22;8701;50.150;8.756;2023-04-25T06:08:52;9.80;99.90
17172;DHT22;8701;50.150;8.756;2023-04-25T06:12:54;9.90;99.90
17172;DHT22;8701;50.150;8.756;2023-04-25T06:16:57;9.90;99.90
17172;DHT22;8701;50.150;8.756;2023-04-25T06:21:03;9.90;99.90
17172;DHT22;8701;50.150;8.756;2023-04-25T06:25:06;9.90;99.90
17172;DHT22;8701;50.150;8.756;2023-04-25T06:29:09;10.00;99.90
17172;DHT22;8701;50.150;8.756;2023-04-25T06:33:11;10.20;99.90
17172;DHT22;8701;50.150;8.756;2023-04-25T06:37:17;10.10;99.90
17172;DHT22;8701;50.150;8.756;2023-04-25T06:41:20;10.10;99.90
17172;DHT22;8701;50.150;8.756;2023-04-25T06:45:22;10.20;99.90
17172;DHT22;8701;50.150;8.756;2023-04-25T06:49:24;10.40;99.90
17172;DHT22;8701;50.150;8.756;2023-04-25T06:53:28;10.60;99.90
17172;DHT22;8701;50.150;8.756;2023-04-25T06:57:34;10.70;99.90
17172;DHT22;8701;50.150;8.756;2023-04-25T07:01:56;10.80;99.90
17172;DHT22;8701;50.150;8.756;2023-04-25T07:06:00;10.90;99.90
17172;DHT22;8701;50.150;8.756;2023-04-25T07:10:06;11.20;99.90
17172;DHT22;8701;50.150;8.756;2023-04-25T07:14:08;11.30;99.90
17172;DHT22;8701;50.150;8.756;2023-04-25T07:18:10;11.40;99.90
17172;DHT22;8701;50.150;8.756;2023-04-25T07:22:12;11.50;99.90
17172;DHT22;8701;50.150;8.756;2023-04-25T07:26:18;11.70;99.90
17172;DHT22;8701;50.150;8.756;2023-04-25T07:30:40;11.70;99.90
17172;DHT22;8701;50.150;8.756;2023-04-25T07:34:42;11.60;99.90
17172;DHT22;8701;50.150;8.756;2023-04-25T07:38:45;11.60;99.90
17172;DHT22;8701;50.150;8.756;2023-04-25T07:42:48;11.80;99.90
17172;DHT22;8701;50.150;8.756;2023-04-25T07:46:57;11.90;99.90
17172;DHT22;8701;50.150;8.756;2023-04-25T07:50:59;12.20;99.90
17172;DHT22;8701;50.150;8.756;2023-04-25T07:55:02;12.50;99.90
17172;DHT22;8701;50.150;8.756;2023-04-25T07:59:17;13.30;99.90
17172;DHT22;8701;50.150;8.756;2023-04-25T08:03:24;15.00;99.90
17172;DHT22;8701;50.150;8.756;2023-04-25T08:07:28;16.90;99.90
17172;DHT22;8701;50.150;8.756;2023-04-25T08:11:36;17.80;99.90
17172;DHT22;8701;50.150;8.756;2023-04-25T08:15:51;17.70;99.90
17172;DHT22;8701;50.150;8.756;2023-04-25T08:24:04;18.40;99.90
17172;DHT22;8701;50.150;8.756;2023-04-25T08:28:10;19.30;99.90
17172;DHT22;8701;50.150;8.756;2023-04-25T08:32:15;20.20;99.90
17172;DHT22;8701;50.150;8.756;2023-04-25T08:36:29;21.00;99.90
17172;DHT22;8701;50.150;8.756;2023-04-25T08:40:37;21.40;99.90
17172;DHT22;8701;50.150;8.756;2023-04-25T08:44:45;21.70;99.60
17172;DHT22;8701;50.150;8.756;2023-04-25T08:48:50;21.30;97.40
17172;DHT22;8701;50.150;8.756;2023-04-25T08:52:59;21.40;98.20
17172;DHT22;8701;50.150;8.756;2023-04-25T08:57:06;21.50;96.00
17172;DHT22;8701;50.150;8.756;2023-04-25T09:01:09;22.50;96.70
17172;DHT22;8701;50.150;8.756;2023-04-25T09:05:21;22.20;96.10
17172;DHT22;8701;50.150;8.756;2023-04-25T09:09:27;22.10;93.80
17172;DHT22;8701;50.150;8.756;2023-04-25T09:13:29;21.80;93.40
17172;DHT22;8701;50.150;8.756;2023-04-25T09:17:55;20.30;93.50
17172;DHT22;8701;50.150;8.756;2023-04-25T09:22:02;18.40;94.80
17172;DHT22;8701;50.150;8.756;2023-04-25T09:26:07;17.60;97.30
17172;DHT22;8701;50.150;8.756;2023-04-25T09:30:10;17.20;97.30
17172;DHT22;8701;50.150;8.756;2023-04-25T09:34:39;17.20;98.50
17172;DHT22;8701;50.150;8.756;2023-04-25T09:38:44;17.10;99.90
17172;DHT22;8701;50.150;8.756;2023-04-25T09:42:52;17.10;99.90
17172;DHT22;8701;50.150;8.756;2023-04-25T09:46:54;18.10;99.90
17172;DHT22;8701;50.150;8.756;2023-04-25T09:51:10;20.10;99.90
17172;DHT22;8701;50.150;8.756;2023-04-25T09:55:16;20.70;96.90
17172;DHT22;8701;50.150;8.756;2023-04-25T09:59:20;21.30;98.40
17172;DHT22;8701;50.150;8.756;2023-04-25T10:03:24;21.40;96.50
17172;DHT22;8701;50.150;8.756;2023-04-25T10:07:46;21.30;95.00
17172;DHT22;8701;50.150;8.756;2023-04-25T10:11:53;20.10;96.40
17172;DHT22;8701;50.150;8.756;2023-04-25T10:15:57;19.10;94.50
17172;DHT22;8701;50.150;8.756;2023-04-25T10:20:01;18.30;96.10
17172;DHT22;8701;50.150;8.756;2023-04-25T10:24:05;17.40;97.40
17172;DHT22;8701;50.150;8.756;2023-04-25T10:28:09;17.20;98.00
17172;DHT22;8701;50.150;8.756;2023-04-25T10:32:11;16.80;96.10
17172;DHT22;8701;50.150;8.756;2023-04-25T10:36:15;16.30;99.80
17172;DHT22;8701;50.150;8.756;2023-04-25T10:40:22;15.80;99.90
17172;DHT22;8701;50.150;8.756;2023-04-25T10:44:28;15.20;99.90
17172;DHT22;8701;50.150;8.756;2023-04-25T10:48:31;15.10;99.90
17172;DHT22;8701;50.150;8.756;2023-04-25T10:52:35;15.00;99.90
17172;DHT22;8701;50.150;8.756;2023-04-25T10:56:42;14.70;99.90
17172;DHT22;8701;50.150;8.756;2023-04-25T11:00:46;14.90;99.90
17172;DHT22;8701;50.150;8.756;2023-04-25T11:04:51;15.00;99.90
17172;DHT22;8701;50.150;8.756;2023-04-25T11:08:53;14.80;99.90
17172;DHT22;8701;50.150;8.756;2023-04-25T11:12:56;14.60;99.90
17172;DHT22;8701;50.150;8.756;2023-04-25T11:17:00;14.60;99.90
17172;DHT22;8701;50.150;8.756;2023-04-25T11:21:03;14.60;99.90
17172;DHT22;8701;50.150;8.756;2023-04-25T11:25:06;14.70;99.90
17172;DHT22;8701;50.150;8.756;2023-04-25T11:29:09;14.60;99.90
17172;DHT22;8701;50.150;8.756;2023-04-25T11:33:13;14.60;99.90
17172;DHT22;8701;50.150;8.756;2023-04-25T11:37:15;14.70;99.90
17172;DHT22;8701;50.150;8.756;2023-04-25T11:41:18;14.80;99.90
17172;DHT22;8701;50.150;8.756;2023-04-25T11:45:20;14.60;99.90
17172;DHT22;8701;50.150;8.756;2023-04-25T11:49:24;14.80;99.90
17172;DHT22;8701;50.150;8.756;2023-04-25T11:53:26;15.00;99.90
17172;DHT22;8701;50.150;8.756;2023-04-25T11:57:31;15.00;99.90
17172;DHT22;8701;50.150;8.756;2023-04-25T12:01:34;15.10;99.90
17172;DHT22;8701;50.150;8.756;2023-04-25T12:05:38;14.90;98.50
17172;DHT22;8701;50.150;8.756;2023-04-25T12:09:41;14.60;97.90
17172;DHT22;8701;50.150;8.756;2023-04-25T12:13:51;14.50;98.30
17172;DHT22;8701;50.150;8.756;2023-04-25T12:17:54;14.40;99.40
17172;DHT22;8701;50.150;8.756;2023-04-25T12:21:58;14.00;98.30
17172;DHT22;8701;50.150;8.756;2023-04-25T12:26:01;13.90;99.30
17172;DHT22;8701;50.150;8.756;2023-04-25T12:30:05;13.90;99.50
17172;DHT22;8701;50.150;8.756;2023-04-25T12:34:08;13.80;99.60
17172;DHT22;8701;50.150;8.756;2023-04-25T12:38:11;13.70;99.90
17172;DHT22;8701;50.150;8.756;2023-04-25T12:42:22;13.50;99.90
17172;DHT22;8701;50.150;8.756;2023-04-25T12:46:24;13.50;99.90
17172;DHT22;8701;50.150;8.756;2023-04-25T12:50:26;13.60;99.90
17172;DHT22;8701;50.150;8.756;2023-04-25T12:54:30;13.90;99.90
17172;DHT22;8701;50.150;8.756;2023-04-25T12:58:33;14.30;99.90
17172;DHT22;8701;50.150;8.756;2023-04-25T13:02:35;14.20;99.90
17172;DHT22;8701;50.150;8.756;2023-04-25T13:06:38;14.20;99.90
17172;DHT22;8701;50.150;8.756;2023-04-25T13:10:41;14.50;99.90
17172;DHT22;8701;50.150;8.756;2023-04-25T13:14:44;14.90;99.90
17172;DHT22;8701;50.150;8.756;2023-04-25T13:18:46;15.00;99.70
17172;DHT22;8701;50.150;8.756;2023-04-25T13:22:48;15.00;99.90
17172;DHT22;8701;50.150;8.756;2023-04-25T13:26:52;14.80;98.70
17172;DHT22;8701;50.150;8.756;2023-04-25T13:30:54;14.30;98.90
17172;DHT22;8701;50.150;8.756;2023-04-25T13:34:56;14.30;99.40
17172;DHT22;8701;50.150;8.756;2023-04-25T13:38:58;14.20;99.40
17172;DHT22;8701;50.150;8.756;2023-04-25T13:43:02;14.20;99.90
17172;DHT22;8701;50.150;8.756;2023-04-25T13:47:05;14.20;98.70
17172;DHT22;8701;50.150;8.756;2023-04-25T13:51:07;14.10;99.10
17172;DHT22;8701;50.150;8.756;2023-04-25T13:55:09;14.30;99.90
17172;DHT22;8701;50.150;8.756;2023-04-25T13:59:13;14.50;99.30
17172;DHT22;8701;50.150;8.756;2023-04-25T14:03:16;14.50;99.90
17172;DHT22;8701;50.150;8.756;2023-04-25T14:07:18;14.50;98.20
17172;DHT22;8701;50.150;8.756;2023-04-25T14:11:21;14.20;98.10
17172;DHT22;8701;50.150;8.756;2023-04-25T14:15:25;14.40;98.20
17172;DHT22;8701;50.150;8.756;2023-04-25T14:19:27;14.80;99.70
17172;DHT22;8701;50.150;8.756;2023-04-25T14:23:30;15.10;99.90
17172;DHT22;8701;50.150;8.756;2023-04-25T14:27:32;15.60;98.80
17172;DHT22;8701;50.150;8.756;2023-04-25T14:31:35;16.10;98.00
17172;DHT22;8701;50.150;8.756;2023-04-25T14:35:38;15.80;96.20
17172;DHT22;8701;50.150;8.756;2023-04-25T14:39:40;15.30;93.70
17172;DHT22;8701;50.150;8.756;2023-04-25T14:43:42;15.10;95.00
17172;DHT22;8701;50.150;8.756;2023-04-25T14:47:47;15.10;91.60
17172;DHT22;8701;50.150;8.756;2023-04-25T14:51:49;14.90;95.10
17172;DHT22;8701;50.150;8.756;2023-04-25T14:55:52;14.50;94.30
17172;DHT22;8701;50.150;8.756;2023-04-25T14:59:54;14.30;94.90
17172;DHT22;8701;50.150;8.756;2023-04-25T15:03:58;14.40;94.80
17172;DHT22;8701;50.150;8.756;2023-04-25T15:08:02;14.20;95.60
17172;DHT22;8701;50.150;8.756;2023-04-25T15:12:04;13.90;97.10
17172;DHT22;8701;50.150;8.756;2023-04-25T15:16:07;13.80;96.50
17172;DHT22;8701;50.150;8.756;2023-04-25T15:20:12;13.80;96.30
17172;DHT22;8701;50.150;8.756;2023-04-25T15:24:15;13.80;96.20
17172;DHT22;8701;50.150;8.756;2023-04-25T15:28:18;13.80;94.60
17172;DHT22;8701;50.150;8.756;2023-04-25T15:32:22;13.80;93.80
17172;DHT22;8701;50.150;8.756;2023-04-25T15:36:25;13.90;94.30
17172;DHT22;8701;50.150;8.756;2023-04-25T15:40:28;13.90;95.00
17172;DHT22;8701;50.150;8.756;2023-04-25T15:44:30;14.10;99.90
17172;DHT22;8701;50.150;8.756;2023-04-25T15:48:32;14.30;97.30
17172;DHT22;8701;50.150;8.756;2023-04-25T15:52:38;14.30;99.90
17172;DHT22;8701;50.150;8.756;2023-04-25T15:56:41;14.30;99.90
17172;DHT22;8701;50.150;8.756;2023-04-25T16:00:43;14.30;99.90
17172;DHT22;8701;50.150;8.756;2023-04-25T16:04:48;14.00;97.60
17172;DHT22;8701;50.150;8.756;2023-04-25T16:08:53;14.00;99.90
17172;DHT22;8701;50.150;8.756;2023-04-25T16:12:55;13.90;97.50
17172;DHT22;8701;50.150;8.756;2023-04-25T16:16:57;13.80;95.10
17172;DHT22;8701;50.150;8.756;2023-04-25T16:21:00;13.70;99.90
17172;DHT22;8701;50.150;8.756;2023-04-25T16:25:04;13.90;95.60
17172;DHT22;8701;50.150;8.756;2023-04-25T16:29:07;13.80;94.40
17172;DHT22;8701;50.150;8.756;2023-04-25T16:33:09;13.80;95.90
17172;DHT22;8701;50.150;8.756;2023-04-25T16:37:11;13.80;98.70
17172;DHT22;8701;50.150;8.756;2023-04-25T16:41:15;13.80;99.90
17172;DHT22;8701;50.150;8.756;2023-04-25T16:45:17;13.70;98.20
17172;DHT22;8701;50.150;8.756;2023-04-25T16:49:20;13.50;99.70
17172;DHT22;8701;50.150;8.756;2023-04-25T16:53:22;13.30;96.40
17172;DHT22;8701;50.150;8.756;2023-04-25T16:57:26;13.20;97.30
17172;DHT22;8701;50.150;8.756;2023-04-25T17:01:28;13.20;97.00
17172;DHT22;8701;50.150;8.756;2023-04-25T17:05:32;13.10;96.10
17172;DHT22;8701;50.150;8.756;2023-04-25T17:09:34;13.10;96.70
17172;DHT22;8701;50.150;8.756;2023-04-25T17:13:38;13.00;95.60
17172;DHT22;8701;50.150;8.756;2023-04-25T17:17:40;12.90;95.20
17172;DHT22;8701;50.150;8.756;2023-04-25T17:21:43;12.90;95.90
17172;DHT22;8701;50.150;8.756;2023-04-25T17:25:45;12.90;97.00
17172;DHT22;8701;50.150;8.756;2023-04-25T17:29:49;12.90;96.80
17172;DHT22;8701;50.150;8.756;2023-04-25T17:33:51;12.80;97.90
17172;DHT22;8701;50.150;8.756;2023-04-25T17:37:53;12.60;97.70
17172;DHT22;8701;50.150;8.756;2023-04-25T17:41:55;12.50;97.20
17172;DHT22;8701;50.150;8.756;2023-04-25T17:46:00;12.50;97.80
17172;DHT22;8701;50.150;8.756;2023-04-25T17:50:03;12.40;99.20
17172;DHT22;8701;50.150;8.756;2023-04-25T17:54:05;12.40;97.80
17172;DHT22;8701;50.150;8.756;2023-04-25T17:58:08;12.20;97.90
17172;DHT22;8701;50.150;8.756;2023-04-25T18:02:13;12.20;97.80
17172;DHT22;8701;50.150;8.756;2023-04-25T18:06:16;12.20;98.50
17172;DHT22;8701;50.150;8.756;2023-04-25T18:10:19;12.10;97.40
17172;DHT22;8701;50.150;8.756;2023-04-25T18:14:21;12.10;97.50
17172;DHT22;8701;50.150;8.756;2023-04-25T18:18:26;12.10;97.70
17172;DHT22;8701;50.150;8.756;2023-04-25T18:22:33;12.10;99.90
17172;DHT22;8701;50.150;8.756;2023-04-25T18:26:35;12.00;98.30
17172;DHT22;8701;50.150;8.756;2023-04-25T18:30:38;12.00;99.90
17172;DHT22;8701;50.150;8.756;2023-04-25T18:34:41;11.80;99.90
17172;DHT22;8701;50.150;8.756;2023-04-25T18:38:45;11.80;99.90
17172;DHT22;8701;50.150;8.756;2023-04-25T18:42:50;11.70;99.90
17172;DHT22;8701;50.150;8.756;2023-04-25T18:46:52;11.60;99.90
17172;DHT22;8701;50.150;8.756;2023-04-25T18:50:56;11.40;99.90
17172;DHT22;8701;50.150;8.756;2023-04-25T18:54:58;11.30;99.90
17172;DHT22;8701;50.150;8.756;2023-04-25T18:59:00;11.20;99.90
17172;DHT22;8701;50.150;8.756;2023-04-25T19:03:03;11.20;99.90
17172;DHT22;8701;50.150;8.756;2023-04-25T19:07:07;11.10;99.90
17172;DHT22;8701;50.150;8.756;2023-04-25T19:11:09;11.00;99.90
17172;DHT22;8701;50.150;8.756;2023-04-25T19:15:12;10.90;99.90
17172;DHT22;8701;50.150;8.756;2023-04-25T19:19:14;10.80;99.90
17172;DHT22;8701;50.150;8.756;2023-04-25T19:23:17;10.60;99.90
17172;DHT22;8701;50.150;8.756;2023-04-25T19:27:20;10.70;99.90
17172;DHT22;8701;50.150;8.756;2023-04-25T19:31:22;10.60;99.90
17172;DHT22;8701;50.150;8.756;2023-04-25T19:35:24;10.50;99.90
17172;DHT22;8701;50.150;8.756;2023-04-25T19:39:32;10.40;99.90
17172;DHT22;8701;50.150;8.756;2023-04-25T19:43:34;10.40;99.90
17172;DHT22;8701;50.150;8.756;2023-04-25T19:47:36;10.40;99.90
17172;DHT22;8701;50.150;8.756;2023-04-25T19:51:39;10.30;99.90
17172;DHT22;8701;50.150;8.756;2023-04-25T19:55:43;10.20;99.90
17172;DHT22;8701;50.150;8.756;2023-04-25T19:59:45;10.20;99.90
17172;DHT22;8701;50.150;8.756;2023-04-25T20:03:48;10.20;99.90
17172;DHT22;8701;50.150;8.756;2023-04-25T20:07:55;10.20;99.90
17172;DHT22;8701;50.150;8.756;2023-04-25T20:11:58;10.20;99.90
17172;DHT22;8701;50.150;8.756;2023-04-25T20:16:00;10.20;99.90
17172;DHT22;8701;50.150;8.756;2023-04-25T20:20:03;10.10;99.90
17172;DHT22;8701;50.150;8.756;2023-04-25T20:24:06;10.10;99.90
17172;DHT22;8701;50.150;8.756;2023-04-25T20:28:10;10.00;99.90
17172;DHT22;8701;50.150;8.756;2023-04-25T20:32:12;9.80;99.90
17172;DHT22;8701;50.150;8.756;2023-04-25T20:36:14;9.70;99.90
17172;DHT22;8701;50.150;8.756;2023-04-25T20:40:16;9.60;99.90
17172;DHT22;8701;50.150;8.756;2023-04-25T20:44:20;9.50;99.90
17172;DHT22;8701;50.150;8.756;2023-04-25T20:48:23;9.40;99.90
17172;DHT22;8701;50.150;8.756;2023-04-25T20:52:25;9.30;99.90
17172;DHT22;8701;50.150;8.756;2023-04-25T20:56:28;9.20;99.90
17172;DHT22;8701;50.150;8.756;2023-04-25T21:00:33;9.30;99.90
17172;DHT22;8701;50.150;8.756;2023-04-25T21:04:35;9.20;99.90
17172;DHT22;8701;50.150;8.756;2023-04-25T21:08:37;9.10;99.90
17172;DHT22;8701;50.150;8.756;2023-04-25T21:12:39;9.00;99.90
17172;DHT22;8701;50.150;8.756;2023-04-25T21:16:45;8.90;99.90
17172;DHT22;8701;50.150;8.756;2023-04-25T21:20:47;8.90;99.90
17172;DHT22;8701;50.150;8.756;2023-04-25T21:24:49;8.80;99.90
17172;DHT22;8701;50.150;8.756;2023-04-25T21:28:57;8.80;99.90
17172;DHT22;8701;50.150;8.756;2023-04-25T21:33:01;8.70;99.90
17172;DHT22;8701;50.150;8.756;2023-04-25T21:37:04;8.70;99.90
17172;DHT22;8701;50.150;8.756;2023-04-25T21:41:06;8.60;99.90
17172;DHT22;8701;50.150;8.756;2023-04-25T21:45:09;8.60;99.90
17172;DHT22;8701;50.150;8.756;2023-04-25T21:49:12;8.50;99.90
17172;DHT22;8701;50.150;8.756;2023-04-25T21:53:15;8.50;99.90
17172;DHT22;8701;50.150;8.756;2023-04-25T21:57:18;8.40;99.90
17172;DHT22;8701;50.150;8.756;2023-04-25T22:01:22;8.40;99.90
17172;DHT22;8701;50.150;8.756;2023-04-25T22:05:27;8.40;99.90
17172;DHT22;8701;50.150;8.756;2023-04-25T22:09:29;8.40;99.90
17172;DHT22;8701;50.150;8.756;2023-04-25T22:13:32;8.40;99.90
17172;DHT22;8701;50.150;8.756;2023-04-25T22:17:35;8.30;99.90
17172;DHT22;8701;50.150;8.756;2023-04-25T22:21:40;8.30;99.90
17172;DHT22;8701;50.150;8.756;2023-04-25T22:25:42;8.30;99.90
17172;DHT22;8701;50.150;8.756;2023-04-25T22:29:44;8.20;99.90
17172;DHT22;8701;50.150;8.756;2023-04-25T22:33:46;8.20;99.90
17172;DHT22;8701;50.150;8.756;2023-04-25T22:37:50;8.20;99.90
17172;DHT22;8701;50.150;8.756;2023-04-25T22:41:53;8.20;99.90
17172;DHT22;8701;50.150;8.756;2023-04-25T22:45:55;8.20;99.90
17172;DHT22;8701;50.150;8.756;2023-04-25T22:49:58;8.20;99.90
17172;DHT22;8701;50.150;8.756;2023-04-25T22:54:05;8.20;99.90
17172;DHT22;8701;50.150;8.756;2023-04-25T22:58:07;8.30;99.90
17172;DHT22;8701;50.150;8.756;2023-04-25T23:02:10;8.30;99.90
17172;DHT22;8701;50.150;8.756;2023-04-25T23:06:13;8.30;99.90
17172;DHT22;8701;50.150;8.756;2023-04-25T23:10:17;8.30;99.90
17172;DHT22;8701;50.150;8.756;2023-04-25T23:14:19;8.30;99.90
17172;DHT22;8701;50.150;8.756;2023-04-25T23:18:22;8.30;99.90
17172;DHT22;8701;50.150;8.756;2023-04-25T23:22:24;8.30;99.90
17172;DHT22;8701;50.150;8.756;2023-04-25T23:26:27;8.40;99.90
17172;DHT22;8701;50.150;8.756;2023-04-25T23:30:30;8.40;99.90
17172;DHT22;8701;50.150;8.756;2023-04-25T23:34:32;8.40;99.90
17172;DHT22;8701;50.150;8.756;2023-04-25T23:38:34;8.40;99.90
17172;DHT22;8701;50.150;8.756;2023-04-25T23:42:39;8.30;99.90
17172;DHT22;8701;50.150;8.756;2023-04-25T23:46:41;8.20;99.90
17172;DHT22;8701;50.150;8.756;2023-04-25T23:50:44;8.10;99.90
17172;DHT22;8701;50.150;8.756;2023-04-25T23:54:46;8.00;99.90
17172;DHT22;8701;50.150;8.756;2023-04-25T23:58:49;8.00;99.90
